createdAt,value
2022-08-14T00:01:24.186Z,20.07
2022-08-14T00:04:35.061Z,20.10
2022-08-14T00:07:21.045Z,19.91
2022-08-14T00:10:51.778Z,19.97
2022-08-14T00:13:31.055Z,19.85
2022-08-14T00:16:41.536Z,19.98
2022-08-14T00:19:27.725Z,19.91
2022-08-14T00:22:44.371Z,19.89
2022-08-14T00:25:41.766Z,19.47
2022-08-14T00:28:32.757Z,19.56
2022-08-14T00:31:35.274Z,19.70
2022-08-14T00:34:37.818Z,19.61
2022-08-14T00:37:34.883Z,19.50
2022-08-14T00:40:33.641Z,19.98
2022-08-14T00:43:24.384Z,20.11
2022-08-14T00:46:32.255Z,20.33
2022-08-14T00:49:21.300Z,20.02
2022-08-14T00:52:13.899Z,19.79
2022-08-14T00:55:03.528Z,19.79
2022-08-14T00:58:11.508Z,19.84
2022-08-14T01:01:11.632Z,19.59
2022-08-14T01:04:05.715Z,19.59
2022-08-14T01:06:55.153Z,19.59
2022-08-14T01:09:44.034Z,19.52
2022-08-14T01:12:33.804Z,19.61
2022-08-14T01:15:31.693Z,19.33
2022-08-14T01:19:02.275Z,19.64
2022-08-14T01:21:53.171Z,19.62
2022-08-14T01:24:43.539Z,19.74
2022-08-14T01:27:32.237Z,19.48
2022-08-14T01:30:41.936Z,19.42
2022-08-14T01:33:31.123Z,19.29
2022-08-14T01:36:39.833Z,19.14
2022-08-14T01:39:28.579Z,19.23
2022-08-14T01:42:31.088Z,19.35
2022-08-14T01:45:25.417Z,19.40
2022-08-14T01:48:14.640Z,19.04
2022-08-14T01:51:03.131Z,19.12
2022-08-14T01:53:59.102Z,19.17
2022-08-14T01:56:47.595Z,19.04
2022-08-14T01:59:44.740Z,18.92
2022-08-14T02:02:36.784Z,18.95
2022-08-14T02:05:38.028Z,18.86
2022-08-14T02:08:35.126Z,18.65
2022-08-14T02:11:25.888Z,18.31
2022-08-14T02:14:14.662Z,18.13
2022-08-14T02:17:23.226Z,17.84
2022-08-14T02:20:12.294Z,17.92
2022-08-14T02:23:01.370Z,18.06
2022-08-14T02:25:54.630Z,17.97
2022-08-14T02:28:57.941Z,18.15
2022-08-14T02:31:52.471Z,18.21
2022-08-14T02:34:41.411Z,18.32
2022-08-14T02:37:47.158Z,18.34
2022-08-14T02:40:38.009Z,18.22
2022-08-14T02:43:37.384Z,18.27
2022-08-14T02:46:41.221Z,17.82
2022-08-14T02:49:34.191Z,17.62
2022-08-14T02:52:55.457Z,17.68
2022-08-14T02:55:33.096Z,17.71
2022-08-14T02:58:29.234Z,17.97
2022-08-14T03:01:24.016Z,17.73
2022-08-14T03:04:15.226Z,17.42
2022-08-14T03:07:08.225Z,17.47
2022-08-14T03:10:25.612Z,17.38
2022-08-14T03:13:06.209Z,17.45
2022-08-14T03:16:09.013Z,17.53
2022-08-14T03:19:00.594Z,17.69
2022-08-14T03:21:52.997Z,17.63
2022-08-14T03:24:41.289Z,17.32
2022-08-14T03:27:35.491Z,17.49
2022-08-14T03:30:40.990Z,17.62
2022-08-14T03:33:37.853Z,17.80
2022-08-14T03:37:37.814Z,17.59
2022-08-14T03:39:40.269Z,17.40
2022-08-14T03:42:35.674Z,17.65
2022-08-14T03:45:35.136Z,17.53
2022-08-14T03:48:30.633Z,17.53
2022-08-14T03:51:19.641Z,17.38
2022-08-14T03:54:08.753Z,17.37
2022-08-14T03:57:04.908Z,17.26
2022-08-14T03:59:53.428Z,17.19
2022-08-14T04:02:47.621Z,17.20
2022-08-14T04:05:48.467Z,17.34
2022-08-14T04:08:41.897Z,17.19
2022-08-14T04:11:30.517Z,17.10
2022-08-14T04:14:18.627Z,17.04
2022-08-14T04:17:10.240Z,17.11
2022-08-14T04:20:03.940Z,17.04
2022-08-14T04:22:55.611Z,17.04
2022-08-14T04:25:44.057Z,16.98
2022-08-14T04:29:01.879Z,16.72
2022-08-14T04:33:01.131Z,16.64
2022-08-14T04:34:52.195Z,16.60
2022-08-14T04:37:58.567Z,16.66
2022-08-14T04:41:05.538Z,16.59
2022-08-14T04:43:53.661Z,16.66
2022-08-14T04:47:01.793Z,16.70
2022-08-14T04:49:57.611Z,16.82
2022-08-14T04:52:54.014Z,16.94
2022-08-14T04:55:51.652Z,17.24
2022-08-14T04:58:42.564Z,17.20
2022-08-14T05:01:40.271Z,17.35
2022-08-14T05:04:28.510Z,17.36
2022-08-14T05:07:16.646Z,17.51
2022-08-14T05:10:12.651Z,17.60
2022-08-14T05:13:13.212Z,17.42
2022-08-14T05:16:03.865Z,17.38
2022-08-14T05:19:18.182Z,17.41
2022-08-14T05:22:17.053Z,17.52
2022-08-14T05:25:06.481Z,17.90
2022-08-14T05:28:00.131Z,18.18
2022-08-14T05:30:53.828Z,18.26
2022-08-14T05:33:42.277Z,18.46
2022-08-14T05:36:42.890Z,18.45
2022-08-14T05:39:41.452Z,18.59
2022-08-14T05:42:33.978Z,18.58
2022-08-14T05:45:22.767Z,18.68
2022-08-14T05:48:33.126Z,18.86
2022-08-14T05:51:26.817Z,18.96
2022-08-14T05:54:27.040Z,19.03
2022-08-14T05:57:15.607Z,19.03
2022-08-14T06:00:04.622Z,19.18
2022-08-14T06:02:56.254Z,19.20
2022-08-14T06:05:47.833Z,19.31
2022-08-14T06:08:41.751Z,19.50
2022-08-14T06:11:31.364Z,19.64
2022-08-14T06:14:24.086Z,19.79
2022-08-14T06:17:25.957Z,20.00
2022-08-14T06:20:15.121Z,20.15
2022-08-14T06:23:03.739Z,20.22
2022-08-14T06:25:53.367Z,20.36
2022-08-14T06:28:41.619Z,20.52
2022-08-14T06:31:33.786Z,20.65
2022-08-14T06:35:02.806Z,20.72
2022-08-14T06:37:47.648Z,20.88
2022-08-14T06:40:40.321Z,20.97
2022-08-14T06:43:32.487Z,21.17
2022-08-14T06:46:32.283Z,21.36
2022-08-14T06:49:25.518Z,21.38
2022-08-14T06:52:15.222Z,21.60
2022-08-14T06:55:06.696Z,21.71
2022-08-14T06:57:57.832Z,21.84
2022-08-14T07:01:24.789Z,21.87
2022-08-14T07:04:34.170Z,21.94
2022-08-14T07:07:22.655Z,22.12
2022-08-14T07:10:16.744Z,22.17
2022-08-14T07:13:06.369Z,22.37
2022-08-14T07:15:58.497Z,22.33
2022-08-14T07:18:50.861Z,22.82
2022-08-14T07:21:39.714Z,22.76
2022-08-14T07:24:31.454Z,23.02
2022-08-14T07:27:20.292Z,23.25
2022-08-14T07:30:33.727Z,23.28
2022-08-14T07:33:24.616Z,23.31
2022-08-14T07:36:29.930Z,23.33
2022-08-14T07:39:18.806Z,23.94
2022-08-14T07:42:16.484Z,24.14
2022-08-14T07:45:12.508Z,24.36
2022-08-14T07:48:01.210Z,24.91
2022-08-14T07:50:50.760Z,24.58
2022-08-14T07:53:41.139Z,24.18
2022-08-14T07:56:47.539Z,24.40
2022-08-14T07:59:41.904Z,24.89
2022-08-14T08:02:32.583Z,24.87
2022-08-14T08:05:24.388Z,25.13
2022-08-14T08:08:27.345Z,25.64
2022-08-14T08:11:16.421Z,25.08
2022-08-14T08:14:10.688Z,25.44
2022-08-14T08:17:06.441Z,25.47
2022-08-14T08:19:57.344Z,25.56
2022-08-14T08:22:48.413Z,25.46
2022-08-14T08:25:42.934Z,25.95
2022-08-14T08:28:31.545Z,25.81
2022-08-14T08:31:23.072Z,25.82
2022-08-14T08:34:23.705Z,26.64
2022-08-14T08:37:14.215Z,26.61
2022-08-14T08:40:04.317Z,26.41
2022-08-14T08:42:54.589Z,26.83
2022-08-14T08:46:03.161Z,26.83
2022-08-14T08:51:44.156Z,27.07
2022-08-14T08:54:36.134Z,27.26
2022-08-14T08:57:24.397Z,27.19
2022-08-14T09:00:24.371Z,27.23
2022-08-14T09:03:20.644Z,27.21
2022-08-14T09:06:53.560Z,27.70
2022-08-14T09:09:30.528Z,27.95
2022-08-14T09:12:22.407Z,27.97
2022-08-14T09:15:12.797Z,28.24
2022-08-14T09:18:01.325Z,28.94
2022-08-14T09:20:54.675Z,28.30
2022-08-14T09:24:29.009Z,27.94
2022-08-14T09:26:55.084Z,28.49
2022-08-14T09:29:43.581Z,28.99
2022-08-14T09:33:11.225Z,28.77
2022-08-14T09:36:22.089Z,28.92
2022-08-14T09:39:57.835Z,29.29
2022-08-14T09:43:15.137Z,29.58
2022-08-14T09:46:11.097Z,29.10
2022-08-14T09:49:16.545Z,29.54
2022-08-14T09:52:33.185Z,29.20
2022-08-14T09:55:24.137Z,29.73
2022-08-14T09:58:23.119Z,30.76
2022-08-14T10:01:20.185Z,30.17
2022-08-14T10:04:33.550Z,30.38
2022-08-14T10:07:53.426Z,30.21
2022-08-14T10:10:42.415Z,30.75
2022-08-14T10:13:43.312Z,30.27
2022-08-14T10:16:47.966Z,30.43
2022-08-14T10:19:48.564Z,29.76
2022-08-14T10:23:13.597Z,29.97
2022-08-14T10:25:51.304Z,31.55
2022-08-14T10:29:17.739Z,31.23
2022-08-14T10:32:00.288Z,31.44
2022-08-14T10:34:52.598Z,31.71
2022-08-14T10:37:49.568Z,31.40
2022-08-14T10:40:44.523Z,31.17
2022-08-14T10:43:43.284Z,30.93
2022-08-14T10:47:40.288Z,31.87
2022-08-14T10:50:01.577Z,31.42
2022-08-14T10:52:59.790Z,31.62
2022-08-14T10:55:59.671Z,31.97
2022-08-14T10:59:06.881Z,32.32
2022-08-14T11:01:59.865Z,31.94
2022-08-14T11:05:18.144Z,32.04
2022-08-14T11:08:09.186Z,32.47
2022-08-14T11:11:05.482Z,33.47
2022-08-14T11:13:57.454Z,32.33
2022-08-14T11:16:53.376Z,32.98
2022-08-14T11:19:42.055Z,32.56
2022-08-14T11:22:56.391Z,32.93
2022-08-14T11:25:52.985Z,32.80
2022-08-14T11:28:47.482Z,32.75
2022-08-14T11:31:51.824Z,32.57
2022-08-14T11:34:41.966Z,33.21
2022-08-14T11:37:40.330Z,32.92
2022-08-14T11:40:35.314Z,33.40
2022-08-14T11:43:29.493Z,32.59
2022-08-14T11:46:30.528Z,33.33
2022-08-14T11:49:34.847Z,32.93
2022-08-14T11:52:34.920Z,32.98
2022-08-14T11:55:39.079Z,33.65
2022-08-14T11:58:35.406Z,33.08
2022-08-14T12:01:31.245Z,34.40
2022-08-14T12:04:21.672Z,35.23
2022-08-14T12:07:21.058Z,34.66
2022-08-14T12:10:25.678Z,33.98
2022-08-14T12:13:19.163Z,33.67
2022-08-14T12:16:20.974Z,34.78
2022-08-14T12:19:10.961Z,34.51
2022-08-14T12:21:59.155Z,34.21
2022-08-14T12:24:50.562Z,33.96
2022-08-14T12:27:59.396Z,33.99
2022-08-14T12:30:53.587Z,34.22
2022-08-14T12:34:00.748Z,33.39
2022-08-14T12:36:49.314Z,34.28
2022-08-14T12:39:40.409Z,35.33
2022-08-14T12:42:40.700Z,35.10
2022-08-14T12:45:36.692Z,35.17
2022-08-14T12:48:32.376Z,35.09
2022-08-14T12:51:27.345Z,35.01
2022-08-14T12:54:28.419Z,35.11
2022-08-14T12:57:20.408Z,35.24
2022-08-14T13:00:22.512Z,35.17
2022-08-14T13:03:27.154Z,36.07
2022-08-14T13:06:16.383Z,35.58
2022-08-14T13:09:07.873Z,34.91
2022-08-14T13:12:32.064Z,36.05
2022-08-14T13:15:17.784Z,35.88
2022-08-14T13:18:11.360Z,35.87
2022-08-14T13:21:02.122Z,36.02
2022-08-14T13:23:50.880Z,36.12
2022-08-14T13:26:51.825Z,35.07
2022-08-14T13:29:46.762Z,36.03
2022-08-14T13:32:37.594Z,35.80
2022-08-14T13:35:27.042Z,36.47
2022-08-14T13:38:22.987Z,36.09
2022-08-14T13:41:12.123Z,35.94
2022-08-14T13:44:00.916Z,35.68
2022-08-14T13:46:49.563Z,36.01
2022-08-14T13:49:40.327Z,36.14
2022-08-14T13:52:54.810Z,36.05
2022-08-14T13:55:52.086Z,36.22
2022-08-14T13:58:46.843Z,36.24
2022-08-14T14:01:42.799Z,36.71
2022-08-14T14:04:33.345Z,37.03
2022-08-14T14:07:23.578Z,36.94
2022-08-14T14:10:13.484Z,36.52
2022-08-14T14:13:04.432Z,37.00
2022-08-14T14:15:58.254Z,37.05
2022-08-14T14:18:52.318Z,36.31
2022-08-14T14:21:41.969Z,36.87
2022-08-14T14:24:34.679Z,36.59
2022-08-14T14:27:40.500Z,36.77
2022-08-14T14:30:53.521Z,37.33
2022-08-14T14:33:48.692Z,36.79
2022-08-14T14:36:39.031Z,36.14
2022-08-14T14:39:29.504Z,36.48
2022-08-14T14:42:27.844Z,36.19
2022-08-14T14:45:23.542Z,36.19
2022-08-14T14:48:13.289Z,36.31
2022-08-14T14:51:04.345Z,36.10
2022-08-14T14:53:53.788Z,35.48
2022-08-14T14:56:47.511Z,36.71
2022-08-14T14:59:39.863Z,35.76
2022-08-14T15:02:42.229Z,36.72
2022-08-14T15:05:30.610Z,35.74
2022-08-14T15:08:26.311Z,35.86
2022-08-14T15:11:15.474Z,35.63
2022-08-14T15:14:54.017Z,35.98
2022-08-14T15:17:13.361Z,35.65
2022-08-14T15:20:16.982Z,35.09
2022-08-14T15:23:11.774Z,34.90
2022-08-14T15:26:01.288Z,36.01
2022-08-14T15:28:49.812Z,35.17
2022-08-14T15:31:51.561Z,34.48
2022-08-14T15:34:51.326Z,34.96
2022-08-14T15:37:42.461Z,34.57
2022-08-14T15:40:31.072Z,35.10
2022-08-14T15:43:19.660Z,34.70
2022-08-14T15:46:41.276Z,34.02
2022-08-14T15:49:19.970Z,34.31
2022-08-14T15:52:09.961Z,35.07
2022-08-14T15:54:59.759Z,35.42
2022-08-14T15:58:01.855Z,33.83
2022-08-14T16:01:12.582Z,33.94
2022-08-14T16:04:01.065Z,34.07
2022-08-14T16:06:54.644Z,33.52
2022-08-14T16:09:44.296Z,33.02
2022-08-14T16:12:46.182Z,33.13
2022-08-14T16:15:39.322Z,33.03
2022-08-14T16:18:42.238Z,33.09
2022-08-14T16:21:31.690Z,33.41
2022-08-14T16:24:27.874Z,33.42
2022-08-14T16:27:21.977Z,33.73
2022-08-14T16:30:27.621Z,33.57
2022-08-14T16:33:56.458Z,33.60
2022-08-14T16:36:30.449Z,33.44
2022-08-14T16:39:20.170Z,33.34
2022-08-14T16:43:03.265Z,33.34
2022-08-14T16:45:27.324Z,33.11
2022-08-14T16:48:54.940Z,33.38
2022-08-14T16:51:24.092Z,33.96
2022-08-14T16:54:20.649Z,33.86
2022-08-14T16:57:27.779Z,33.97
2022-08-14T17:00:33.020Z,33.45
2022-08-14T17:03:36.902Z,33.46
2022-08-14T17:06:47.967Z,33.84
2022-08-14T17:09:54.809Z,33.40
2022-08-14T17:12:43.414Z,32.99
2022-08-14T17:15:33.048Z,33.21
2022-08-14T17:18:47.114Z,33.27
2022-08-14T17:21:47.578Z,32.81
2022-08-14T17:24:55.737Z,32.41
2022-08-14T17:27:48.197Z,32.33
2022-08-14T17:30:59.113Z,32.79
2022-08-14T17:33:53.442Z,33.18
2022-08-14T17:36:47.829Z,33.13
2022-08-14T17:39:39.937Z,32.51
2022-08-14T17:43:01.763Z,32.22
2022-08-14T17:45:51.076Z,32.21
2022-08-14T17:49:14.570Z,32.04
2022-08-14T17:52:17.276Z,31.87
2022-08-14T17:56:01.983Z,31.97
2022-08-14T17:58:27.110Z,31.79
2022-08-14T18:01:23.492Z,31.96
2022-08-14T18:04:27.750Z,31.91
2022-08-14T18:07:59.287Z,31.70
2022-08-14T18:10:51.735Z,31.19
2022-08-14T18:13:51.169Z,31.11
2022-08-14T18:16:43.265Z,30.79
2022-08-14T18:19:38.329Z,30.64
2022-08-14T18:22:39.353Z,30.49
2022-08-14T18:25:34.374Z,30.25
2022-08-14T18:28:48.476Z,30.15
2022-08-14T18:31:42.030Z,29.79
2022-08-14T18:34:38.258Z,29.68
2022-08-14T18:37:41.003Z,29.27
2022-08-14T18:40:35.145Z,29.32
2022-08-14T18:43:59.265Z,29.01
2022-08-14T18:47:14.779Z,28.94
2022-08-14T18:50:27.254Z,28.65
2022-08-14T18:53:20.412Z,28.48
2022-08-14T18:56:13.596Z,28.09
2022-08-14T18:59:42.392Z,28.19
2022-08-14T19:02:31.863Z,28.01
2022-08-14T19:05:40.927Z,27.64
2022-08-14T19:08:50.052Z,27.59
2022-08-14T19:11:38.603Z,27.65
2022-08-14T19:14:48.994Z,27.48
2022-08-14T19:18:13.864Z,27.53
2022-08-14T19:21:13.023Z,27.50
2022-08-14T19:24:34.029Z,27.69
2022-08-14T19:27:26.440Z,27.73
2022-08-14T19:30:27.837Z,27.64
2022-08-14T19:33:53.818Z,27.59
2022-08-14T19:37:05.257Z,27.55
2022-08-14T19:40:15.138Z,27.54
2022-08-14T19:43:06.692Z,27.44
2022-08-14T19:45:58.883Z,27.38
2022-08-14T19:48:56.735Z,27.43
2022-08-14T19:51:49.240Z,27.47
2022-08-14T19:54:37.967Z,27.46
2022-08-14T19:57:31.492Z,27.38
2022-08-14T20:00:29.406Z,27.32
2022-08-14T20:03:23.180Z,27.38
2022-08-14T20:06:13.036Z,27.27
2022-08-14T20:11:03.515Z,27.31
2022-08-14T20:12:29.161Z,27.28
2022-08-14T20:15:47.369Z,27.28
2022-08-14T20:18:49.111Z,27.34
2022-08-14T20:21:57.936Z,27.34
2022-08-14T20:24:50.001Z,27.22
2022-08-14T20:27:44.421Z,27.18
2022-08-14T20:30:35.939Z,27.22
2022-08-14T20:33:25.362Z,27.18
2022-08-14T20:36:26.017Z,27.21
2022-08-14T20:39:21.127Z,27.22
2022-08-14T20:42:34.601Z,27.07
2022-08-14T20:45:23.815Z,27.20
2022-08-14T20:48:18.360Z,27.21
2022-08-14T20:51:58.927Z,27.13
2022-08-14T20:54:51.448Z,27.09
2022-08-14T20:57:43.806Z,26.96
2022-08-14T21:01:00.704Z,26.77
2022-08-14T21:03:52.844Z,26.71
2022-08-14T21:07:22.678Z,26.58
2022-08-14T21:10:33.383Z,26.55
2022-08-14T21:14:08.623Z,26.27
2022-08-14T21:16:35.815Z,26.25
2022-08-14T21:19:27.852Z,26.01
2022-08-14T21:22:16.960Z,26.12
2022-08-14T21:25:10.549Z,26.06
2022-08-14T21:28:04.900Z,26.02
2022-08-14T21:30:55.167Z,26.05
2022-08-14T21:33:43.598Z,26.00
2022-08-14T21:36:33.140Z,25.96
2022-08-14T21:39:24.180Z,26.02
2022-08-14T21:42:13.736Z,26.02
2022-08-14T21:45:08.478Z,26.02
2022-08-14T21:47:56.949Z,25.96
2022-08-14T21:51:00.984Z,25.87
2022-08-14T21:54:06.015Z,25.81
2022-08-14T21:57:17.391Z,25.77
2022-08-14T22:00:35.923Z,25.77
2022-08-14T22:03:24.140Z,25.97
2022-08-14T22:06:12.877Z,26.04
2022-08-14T22:09:10.818Z,25.91
2022-08-14T22:11:59.283Z,25.89
2022-08-14T22:14:49.166Z,25.81
2022-08-14T22:17:39.820Z,25.83
2022-08-14T22:20:33.904Z,25.75
2022-08-14T22:23:23.985Z,25.46
2022-08-14T22:26:12.671Z,25.33
2022-08-14T22:29:11.101Z,25.36
2022-08-14T22:31:59.970Z,25.36
2022-08-14T22:34:48.647Z,25.39
2022-08-14T22:37:44.191Z,25.42
2022-08-14T22:41:00.279Z,25.32
2022-08-14T22:43:42.331Z,25.37
2022-08-14T22:46:31.371Z,25.25
2022-08-14T22:50:32.023Z,25.23
2022-08-14T22:52:33.638Z,25.15
2022-08-14T22:55:27.458Z,25.06
2022-08-14T22:58:17.212Z,25.13
2022-08-14T23:01:11.937Z,25.14
2022-08-14T23:04:01.517Z,25.17
2022-08-14T23:07:03.146Z,25.21
2022-08-14T23:10:33.099Z,25.10
2022-08-14T23:13:15.077Z,25.02
2022-08-14T23:16:06.327Z,24.94
2022-08-14T23:18:54.816Z,24.96
2022-08-14T23:21:46.434Z,24.87
2022-08-14T23:24:36.230Z,24.86
2022-08-14T23:28:03.165Z,24.92
2022-08-14T23:30:41.609Z,24.94
2022-08-14T23:33:42.046Z,24.92
2022-08-14T23:36:53.376Z,24.82
2022-08-14T23:39:44.816Z,24.79
2022-08-14T23:42:39.968Z,24.85
2022-08-14T23:45:46.136Z,24.80
2022-08-14T23:48:34.798Z,24.79
2022-08-14T23:51:25.391Z,24.78
2022-08-14T23:54:49.116Z,24.76
2022-08-14T23:57:34.001Z,24.74
